Time;durP1;ratioP1;P1;durP2;ratioP2;P2;SDS_P1;SDS_P2;PMS_P1;PMS_P2;Temp;Humidity;BMP_temperature;BMP_pressure;BME280_temperature;BME280_humidity;BME280_pressure;Samples;Min_cycle;Max_cycle;Signal;HPM_P1;HPM_P2
2023/07/19 00:01:39;;;;;;;3.50;2.65;;;;;;;;;;4960416;28;20066;-79
2023/07/19 00:04:07;;;;;;;4.40;3.58;;;;;;;;;;4948430;28;20058;-79
2023/07/19 00:06:36;;;;;;;5.00;3.05;;;;;;;;;;4943764;28;20051;-79
2023/07/19 00:09:03;;;;;;;5.13;3.17;;;;;;;;;;4978747;28;20054;-79
2023/07/19 00:11:30;;;;;;;4.45;2.58;;;;;;;;;;4979765;28;20055;-79
2023/07/19 00:14:00;;;;;;;5.10;2.97;;;;;;;;;;4962697;28;20058;-80
2023/07/19 00:16:29;;;;;;;4.50;3.55;;;;;;;;;;4956745;28;20054;-79
2023/07/19 00:18:57;;;;;;;9.77;3.65;;;;;;;;;;4946647;28;20057;-79
2023/07/19 00:21:29;;;;;;;3.67;3.20;;;;;;;;;;4948814;28;20054;-79
2023/07/19 00:23:59;;;;;;;4.85;2.92;;;;;;;;;;4966227;28;20057;-79
2023/07/19 00:26:27;;;;;;;3.20;2.70;;;;;;;;;;4983993;28;20046;-79
2023/07/19 00:28:54;;;;;;;3.80;3.05;;;;;;;;;;4937764;28;20065;-79
2023/07/19 00:34:15;;;;;;;5.13;3.33;;;;;;;;;;4946255;28;20088;-79
2023/07/19 00:36:46;;;;;;;8.18;3.50;;;;;;;;;;4961180;28;20054;-79
2023/07/19 00:39:14;;;;;;;4.60;3.05;;;;;;;;;;4946940;28;20062;-79
2023/07/19 00:41:41;;;;;;;4.57;3.25;;;;;;;;;;4963873;28;20047;-79
2023/07/19 00:44:11;;;;;;;3.55;2.88;;;;;;;;;;4965670;28;20062;-79
2023/07/19 00:46:38;;;;;;;3.95;3.50;;;;;;;;;;4949989;28;20057;-79
2023/07/19 00:49:08;;;;;;;5.65;3.25;;;;;;;;;;4966808;28;20055;-80
2023/07/19 00:51:35;;;;;;;6.45;3.35;;;;;;;;;;4949144;28;20058;-80
2023/07/19 00:54:08;;;;;;;4.70;3.63;;;;;;;;;;4977500;28;20051;-80
2023/07/19 00:56:37;;;;;;;5.15;3.22;;;;;;;;;;4969594;28;20046;-80
2023/07/19 00:59:05;;;;;;;5.20;3.75;;;;;;;;;;4949417;28;20065;-79
2023/07/19 01:01:32;;;;;;;5.45;3.08;;;;;;;;;;4949091;28;20069;-79
2023/07/19 01:04:02;;;;;;;4.72;2.97;;;;;;;;;;4949156;28;20066;-79
2023/07/19 01:06:33;;;;;;;4.38;3.08;;;;;;;;;;4946988;28;20058;-79
2023/07/19 01:09:03;;;;;;;4.97;3.40;;;;;;;;;;4942160;28;20054;-79
2023/07/19 01:11:34;;;;;;;4.13;3.08;;;;;;;;;;4950935;28;20428;-79
2023/07/19 01:14:01;;;;;;;3.60;3.28;;;;;;;;;;4948882;28;20055;-79
2023/07/19 01:16:33;;;;;;;3.88;3.20;;;;;;;;;;4957020;28;20061;-79
2023/07/19 01:19:01;;;;;;;4.30;3.05;;;;;;;;;;4946907;28;20055;-79
2023/07/19 01:21:28;;;;;;;7.55;4.07;;;;;;;;;;4954262;28;20058;-79
2023/07/19 01:23:59;;;;;;;7.80;3.80;;;;;;;;;;4956802;28;20043;-79
2023/07/19 01:26:26;;;;;;;4.20;3.80;;;;;;;;;;4971125;28;20062;-79
2023/07/19 01:28:56;;;;;;;3.72;3.42;;;;;;;;;;4961562;28;20042;-79
2023/07/19 01:31:24;;;;;;;6.50;3.42;;;;;;;;;;4971169;28;20062;-79
2023/07/19 01:33:52;;;;;;;4.45;3.60;;;;;;;;;;4947295;28;20317;-79
2023/07/19 01:36:22;;;;;;;3.67;2.78;;;;;;;;;;4945570;28;20050;-79
2023/07/19 01:38:50;;;;;;;3.80;3.40;;;;;;;;;;4974846;28;20051;-79
2023/07/19 01:41:18;;;;;;;4.30;3.38;;;;;;;;;;4974720;28;20078;-80
2023/07/19 01:43:45;;;;;;;4.70;3.65;;;;;;;;;;4963923;28;20038;-80
2023/07/19 01:46:13;;;;;;;12.88;3.67;;;;;;;;;;4947545;28;20058;-80
2023/07/19 01:48:42;;;;;;;5.03;3.90;;;;;;;;;;4944087;28;20047;-79
2023/07/19 01:51:12;;;;;;;3.83;3.28;;;;;;;;;;4945226;28;20062;-79
2023/07/19 01:53:39;;;;;;;6.18;4.10;;;;;;;;;;4947247;28;20307;-79
2023/07/19 01:56:09;;;;;;;5.38;2.72;;;;;;;;;;4980033;28;20062;-79
2023/07/19 01:58:39;;;;;;;7.05;3.40;;;;;;;;;;4944488;28;20050;-79
2023/07/19 02:01:08;;;;;;;4.28;3.75;;;;;;;;;;4938827;28;20085;-79
2023/07/19 02:03:36;;;;;;;5.18;3.67;;;;;;;;;;4948196;28;20489;-79
2023/07/19 02:06:03;;;;;;;3.92;3.40;;;;;;;;;;4995263;28;20062;-79
2023/07/19 02:08:35;;;;;;;6.40;3.65;;;;;;;;;;4958768;28;20054;-79
2023/07/19 02:11:02;;;;;;;13.50;4.28;;;;;;;;;;4939471;28;20055;-79
2023/07/19 02:13:30;;;;;;;4.75;3.28;;;;;;;;;;4962562;28;20058;-79
2023/07/19 02:15:58;;;;;;;5.55;3.58;;;;;;;;;;4962830;28;20049;-79
2023/07/19 02:18:28;;;;;;;3.55;3.25;;;;;;;;;;4961851;28;20050;-79
2023/07/19 02:21:00;;;;;;;4.25;3.00;;;;;;;;;;4961310;28;20066;-79
2023/07/19 02:23:29;;;;;;;5.32;3.47;;;;;;;;;;4962635;28;20051;-79
2023/07/19 02:25:59;;;;;;;7.38;3.63;;;;;;;;;;4955247;28;20054;-79
2023/07/19 02:28:26;;;;;;;5.22;4.35;;;;;;;;;;4966243;28;20055;-79
2023/07/19 02:30:58;;;;;;;5.00;3.58;;;;;;;;;;4969875;28;20405;-79
2023/07/19 02:33:26;;;;;;;4.43;3.45;;;;;;;;;;4946294;28;20058;-79
2023/07/19 02:35:56;;;;;;;5.65;3.33;;;;;;;;;;4977692;28;20054;-79
2023/07/19 02:38:23;;;;;;;3.88;2.95;;;;;;;;;;4943849;28;20055;-79
2023/07/19 02:40:51;;;;;;;4.00;3.20;;;;;;;;;;4955962;28;20050;-79
2023/07/19 02:43:20;;;;;;;6.60;3.60;;;;;;;;;;4953246;29;20051;-79
2023/07/19 02:45:48;;;;;;;5.50;3.58;;;;;;;;;;4969802;28;20054;-79
2023/07/19 02:48:19;;;;;;;4.13;3.65;;;;;;;;;;4976620;28;20051;-79
2023/07/19 02:50:46;;;;;;;4.47;4.00;;;;;;;;;;4942866;28;20047;-79
2023/07/19 02:53:17;;;;;;;6.65;3.75;;;;;;;;;;4944562;28;20361;-79
2023/07/19 02:55:44;;;;;;;5.38;4.43;;;;;;;;;;4945669;28;20062;-79
2023/07/19 02:58:16;;;;;;;4.18;3.78;;;;;;;;;;4945860;28;20061;-79
2023/07/19 03:00:46;;;;;;;5.53;3.67;;;;;;;;;;4943944;28;20066;-79
2023/07/19 03:03:19;;;;;;;4.97;4.38;;;;;;;;;;4945697;28;20520;-80
2023/07/19 03:05:46;;;;;;;4.60;3.25;;;;;;;;;;4949801;28;20401;-80
2023/07/19 03:08:14;;;;;;;4.40;3.63;;;;;;;;;;4936943;28;20051;-80
2023/07/19 03:10:41;;;;;;;6.88;3.58;;;;;;;;;;4944057;28;20394;-80
2023/07/19 03:13:09;;;;;;;4.70;3.25;;;;;;;;;;4944338;28;20050;-80
2023/07/19 03:15:36;;;;;;;4.90;3.75;;;;;;;;;;4961276;28;20045;-80
2023/07/19 03:18:04;;;;;;;7.38;4.93;;;;;;;;;;4944179;28;20051;-80
2023/07/19 03:20:33;;;;;;;6.47;3.67;;;;;;;;;;4936495;28;20054;-80
2023/07/19 03:23:03;;;;;;;3.83;3.15;;;;;;;;;;4988076;28;20042;-81
2023/07/19 03:25:30;;;;;;;5.18;3.50;;;;;;;;;;4931422;28;20050;-81
2023/07/19 03:27:58;;;;;;;4.82;3.72;;;;;;;;;;4944137;28;20058;-81
2023/07/19 03:30:25;;;;;;;7.25;3.90;;;;;;;;;;4943592;28;20050;-81
2023/07/19 03:32:53;;;;;;;4.93;4.38;;;;;;;;;;4959484;28;20047;-81
2023/07/19 03:35:21;;;;;;;4.43;3.47;;;;;;;;;;4988152;28;20055;-81
2023/07/19 03:37:50;;;;;;;3.88;3.42;;;;;;;;;;4937497;28;20408;-81
2023/07/19 03:40:18;;;;;;;4.63;3.42;;;;;;;;;;4960648;28;20039;-81
2023/07/19 03:42:47;;;;;;;6.35;3.95;;;;;;;;;;4959529;28;20061;-81
2023/07/19 03:45:17;;;;;;;4.90;3.50;;;;;;;;;;4971584;28;20054;-81
2023/07/19 03:47:48;;;;;;;5.78;5.20;;;;;;;;;;4964432;28;20049;-81
2023/07/19 03:50:15;;;;;;;6.68;3.40;;;;;;;;;;4949647;28;20055;-81
2023/07/19 03:52:45;;;;;;;4.47;3.75;;;;;;;;;;4942959;28;20051;-79
2023/07/19 03:55:14;;;;;;;5.82;4.43;;;;;;;;;;4940479;28;20050;-80
2023/07/19 03:57:44;;;;;;;6.25;4.40;;;;;;;;;;4940300;28;20077;-80
2023/07/19 04:00:16;;;;;;;5.93;4.38;;;;;;;;;;4949378;29;20058;-80
2023/07/19 04:02:48;;;;;;;3.73;3.33;;;;;;;;;;4939262;28;20057;-80
2023/07/19 04:05:20;;;;;;;4.75;3.58;;;;;;;;;;4926792;29;20047;-80
2023/07/19 04:07:47;;;;;;;4.32;3.83;;;;;;;;;;4979777;28;20054;-80
2023/07/19 04:10:20;;;;;;;3.92;3.60;;;;;;;;;;4943383;28;20042;-80
2023/07/19 04:12:49;;;;;;;3.83;3.42;;;;;;;;;;4961287;28;20769;-80
2023/07/19 04:15:17;;;;;;;4.70;3.95;;;;;;;;;;4963804;28;20047;-80
2023/07/19 04:17:45;;;;;;;4.65;4.03;;;;;;;;;;4947880;28;20047;-80
2023/07/19 04:20:14;;;;;;;3.97;3.28;;;;;;;;;;4965103;28;20059;-80
2023/07/19 04:22:42;;;;;;;4.88;4.38;;;;;;;;;;4957192;28;20050;-79
2023/07/19 04:25:10;;;;;;;4.55;3.28;;;;;;;;;;4945040;28;20050;-79
2023/07/19 04:27:41;;;;;;;4.45;4.05;;;;;;;;;;4957616;28;20058;-80
2023/07/19 04:30:09;;;;;;;6.63;3.65;;;;;;;;;;4947862;28;20058;-80
2023/07/19 04:32:38;;;;;;;7.68;3.97;;;;;;;;;;4948464;28;20050;-80
2023/07/19 04:35:08;;;;;;;4.40;3.92;;;;;;;;;;4948648;28;20055;-80
2023/07/19 04:37:38;;;;;;;4.00;3.13;;;;;;;;;;4947842;28;20050;-80
2023/07/19 04:40:07;;;;;;;4.45;3.65;;;;;;;;;;4949648;28;20062;-81
2023/07/19 04:42:35;;;;;;;3.88;3.38;;;;;;;;;;4939180;29;20054;-80
2023/07/19 04:45:04;;;;;;;4.05;3.65;;;;;;;;;;4953829;28;20058;-80
2023/07/19 04:47:37;;;;;;;5.68;4.20;;;;;;;;;;4982078;28;20045;-80
2023/07/19 04:50:06;;;;;;;4.05;3.30;;;;;;;;;;4959561;28;20067;-80
2023/07/19 04:52:40;;;;;;;5.50;4.07;;;;;;;;;;4945794;28;20062;-80
2023/07/19 04:55:09;;;;;;;4.60;3.30;;;;;;;;;;4961828;28;20065;-80
2023/07/19 04:57:37;;;;;;;7.13;4.13;;;;;;;;;;4949103;28;20062;-80
2023/07/19 05:00:13;;;;;;;6.97;4.18;;;;;;;;;;4952683;28;20057;-80
2023/07/19 05:02:43;;;;;;;5.32;3.28;;;;;;;;;;4952394;28;20057;-80
2023/07/19 05:05:12;;;;;;;3.85;3.55;;;;;;;;;;4983214;28;20409;-80
2023/07/19 05:07:39;;;;;;;4.57;3.33;;;;;;;;;;4973483;28;20051;-80
2023/07/19 05:10:10;;;;;;;3.35;2.97;;;;;;;;;;4956809;28;20058;-81
2023/07/19 05:12:37;;;;;;;6.20;4.00;;;;;;;;;;4962766;28;20047;-81
2023/07/19 05:15:07;;;;;;;4.65;3.38;;;;;;;;;;4986197;28;20057;-81
2023/07/19 05:17:36;;;;;;;3.95;3.33;;;;;;;;;;4953079;28;20058;-81
2023/07/19 05:20:05;;;;;;;3.83;3.45;;;;;;;;;;4945896;28;20532;-81
2023/07/19 05:22:35;;;;;;;4.82;3.58;;;;;;;;;;4948026;28;20058;-81
2023/07/19 05:25:03;;;;;;;4.45;3.35;;;;;;;;;;4957473;28;20050;-81
2023/07/19 05:27:35;;;;;;;4.75;3.60;;;;;;;;;;4965228;28;20050;-81
2023/07/19 05:30:06;;;;;;;5.18;3.78;;;;;;;;;;4977340;28;20058;-81
2023/07/19 05:32:37;;;;;;;4.88;3.38;;;;;;;;;;4948315;28;20058;-81
2023/07/19 05:35:06;;;;;;;6.07;3.28;;;;;;;;;;4980764;28;20050;-81
2023/07/19 05:37:33;;;;;;;4.30;3.40;;;;;;;;;;4976786;28;20050;-81
2023/07/19 05:40:01;;;;;;;4.60;3.65;;;;;;;;;;4974796;28;20047;-81
2023/07/19 05:42:28;;;;;;;3.65;3.00;;;;;;;;;;4993992;28;20043;-81
2023/07/19 05:44:57;;;;;;;5.55;3.83;;;;;;;;;;4961383;28;20050;-81
2023/07/19 05:47:25;;;;;;;4.45;3.83;;;;;;;;;;4957688;28;20050;-81
2023/07/19 06:27:24;;;;;;;5.43;4.13;;;;;;;;;;5100263;23;20039;-94
2023/07/19 06:29:54;;;;;;;4.57;3.40;;;;;;;;;;4972551;29;20035;-95
2023/07/19 06:32:21;;;;;;;6.30;3.97;;;;;;;;;;4947930;29;20032;-94
2023/07/19 06:34:51;;;;;;;5.45;4.53;;;;;;;;;;4970563;28;20038;-94
2023/07/19 06:37:22;;;;;;;5.50;4.00;;;;;;;;;;4963215;28;20592;-94
2023/07/19 06:39:51;;;;;;;5.70;4.30;;;;;;;;;;4945149;29;20282;-95
2023/07/19 06:42:19;;;;;;;7.60;3.28;;;;;;;;;;4940282;28;20042;-94
2023/07/19 06:44:48;;;;;;;4.38;3.78;;;;;;;;;;4951785;29;20054;-94
2023/07/19 06:47:26;;;;;;;4.05;3.42;;;;;;;;;;4971481;28;20039;-93
2023/07/19 06:49:57;;;;;;;4.20;3.63;;;;;;;;;;4936341;29;20037;-95
2023/07/19 06:52:27;;;;;;;5.53;4.22;;;;;;;;;;4956954;29;20054;-94
2023/07/19 06:54:58;;;;;;;5.90;3.40;;;;;;;;;;4972360;28;20043;-95
2023/07/19 06:57:29;;;;;;;5.85;4.00;;;;;;;;;;4968540;28;20050;-95
2023/07/19 07:00:00;;;;;;;7.15;4.22;;;;;;;;;;4973420;29;20027;-94
2023/07/19 07:02:28;;;;;;;4.70;3.50;;;;;;;;;;4968766;29;20043;-94
2023/07/19 07:04:55;;;;;;;4.65;3.20;;;;;;;;;;4970793;28;20272;-94
2023/07/19 07:07:27;;;;;;;5.03;3.60;;;;;;;;;;4967000;28;20054;-95
2023/07/19 07:09:57;;;;;;;7.13;4.65;;;;;;;;;;4970223;29;20062;-93
2023/07/19 07:12:27;;;;;;;3.53;3.00;;;;;;;;;;4956583;28;20053;-94
2023/07/19 07:14:54;;;;;;;5.75;4.15;;;;;;;;;;4972097;28;20037;-94
2023/07/19 07:17:26;;;;;;;4.07;3.38;;;;;;;;;;4970359;28;20051;-94
2023/07/19 07:19:55;;;;;;;3.92;3.15;;;;;;;;;;4969960;29;20044;-95
2023/07/19 07:22:25;;;;;;;12.70;4.53;;;;;;;;;;4960889;28;20039;-94
2023/07/19 07:24:55;;;;;;;7.47;4.75;;;;;;;;;;4957977;28;20303;-93
2023/07/19 07:58:02;;;;;;;7.53;2.88;;;;;;;;;;5342253;23;20036;-95
2023/07/19 08:00:31;;;;;;;5.35;2.85;;;;;;;;;;4962156;29;20053;-93
2023/07/19 08:02:59;;;;;;;4.05;3.05;;;;;;;;;;4952931;28;20044;-94
2023/07/19 08:05:30;;;;;;;3.85;2.85;;;;;;;;;;4949877;29;20043;-95
2023/07/19 08:07:59;;;;;;;3.53;2.67;;;;;;;;;;4969005;28;20051;-94
2023/07/19 08:10:27;;;;;;;3.13;2.83;;;;;;;;;;4971684;29;20051;-93
2023/07/19 08:12:57;;;;;;;4.05;2.78;;;;;;;;;;4966823;29;20057;-93
2023/07/19 08:15:26;;;;;;;9.10;3.50;;;;;;;;;;4952709;29;20039;-94
2023/07/19 08:17:53;;;;;;;4.63;3.10;;;;;;;;;;4954456;29;20250;-94
2023/07/19 08:20:25;;;;;;;;;;;;;;;;;;4971806;28;20519;-94
2023/07/19 08:22:53;;;;;;;7.18;3.72;;;;;;;;;;4941738;29;19922;-94
2023/07/19 08:25:21;;;;;;;4.22;3.45;;;;;;;;;;4936557;29;20052;-95
2023/07/19 08:27:51;;;;;;;3.22;2.63;;;;;;;;;;4937114;29;20063;-94
2023/07/19 08:30:19;;;;;;;8.75;3.65;;;;;;;;;;4933683;28;20059;-95
2023/07/19 08:32:48;;;;;;;5.40;3.15;;;;;;;;;;4929715;28;20058;-94
2023/07/19 08:35:17;;;;;;;4.78;2.95;;;;;;;;;;4931314;29;20055;-93
2023/07/19 08:37:44;;;;;;;4.50;3.13;;;;;;;;;;4949413;29;20055;-95
2023/07/19 08:40:14;;;;;;;5.65;3.92;;;;;;;;;;4935012;29;20063;-94
2023/07/19 08:42:42;;;;;;;5.88;2.67;;;;;;;;;;4947431;29;20047;-95
2023/07/19 08:45:11;;;;;;;4.72;3.25;;;;;;;;;;4937611;29;20527;-94
2023/07/19 08:47:41;;;;;;;4.37;3.47;;;;;;;;;;4934777;29;20071;-95
2023/07/19 08:50:11;;;;;;;4.00;3.40;;;;;;;;;;4944512;29;20058;-94
2023/07/19 08:52:39;;;;;;;4.28;3.15;;;;;;;;;;4949849;28;20035;-94
2023/07/19 08:55:08;;;;;;;5.93;3.17;;;;;;;;;;4954701;28;20035;-94
2023/07/19 08:57:39;;;;;;;4.07;3.10;;;;;;;;;;4971755;28;20027;-95
2023/07/19 09:00:10;;;;;;;4.78;2.25;;;;;;;;;;4959383;28;20063;-93
2023/07/19 09:02:37;;;;;;;5.40;2.85;;;;;;;;;;4962202;28;20039;-94
2023/07/19 09:05:05;;;;;;;3.10;2.28;;;;;;;;;;4960866;28;20055;-94
2023/07/19 09:07:34;;;;;;;2.67;2.47;;;;;;;;;;4960336;28;20027;-92
2023/07/19 09:10:04;;;;;;;3.20;2.58;;;;;;;;;;4964103;28;20132;-93
2023/07/19 09:12:39;;;;;;;3.45;2.10;;;;;;;;;;4946664;28;20031;-93
2023/07/19 09:15:07;;;;;;;4.05;2.35;;;;;;;;;;4943790;29;20051;-94
2023/07/19 09:17:37;;;;;;;3.05;2.38;;;;;;;;;;4953706;29;20047;-95
2023/07/19 09:20:06;;;;;;;2.97;2.47;;;;;;;;;;4965812;29;20055;-95
2023/07/19 09:22:42;;;;;;;5.47;2.80;;;;;;;;;;4966757;29;20066;-94
2023/07/19 09:25:11;;;;;;;3.47;2.25;;;;;;;;;;4950635;29;20604;-93
2023/07/19 09:27:43;;;;;;;3.92;2.40;;;;;;;;;;4965240;28;20875;-94
2023/07/19 09:30:12;;;;;;;4.32;2.25;;;;;;;;;;4953359;29;20058;-94
2023/07/19 09:32:40;;;;;;;3.55;2.13;;;;;;;;;;4953300;29;20056;-94
2023/07/19 09:35:11;;;;;;;3.63;2.13;;;;;;;;;;4964749;28;20043;-94
2023/07/19 09:37:39;;;;;;;4.70;2.33;;;;;;;;;;4949160;29;20054;-94
2023/07/19 09:40:23;;;;;;;4.13;2.88;;;;;;;;;;4950920;29;20059;-94
2023/07/19 09:42:50;;;;;;;9.82;1.83;;;;;;;;;;4948185;28;20035;-93
2023/07/19 09:45:23;;;;;;;5.35;2.03;;;;;;;;;;4977238;28;20031;-93
2023/07/19 09:47:51;;;;;;;4.22;1.30;;;;;;;;;;4955245;28;20062;-95
2023/07/19 09:50:21;;;;;;;2.05;1.50;;;;;;;;;;4951072;29;20093;-94
2023/07/19 09:52:50;;;;;;;3.03;1.83;;;;;;;;;;4966016;28;20580;-95
2023/07/19 09:55:20;;;;;;;5.97;1.50;;;;;;;;;;4968340;29;20055;-95
2023/07/19 09:57:51;;;;;;;;;;;;;;;;;;4935913;29;20026;-93
2023/07/19 10:00:19;;;;;;;2.80;1.45;;;;;;;;;;4969967;28;19922;-95
2023/07/19 10:02:51;;;;;;;2.38;1.67;;;;;;;;;;4944681;29;20043;-95
2023/07/19 10:05:27;;;;;;;1.95;1.40;;;;;;;;;;4950814;29;20047;-94
2023/07/19 10:08:02;;;;;;;2.70;2.13;;;;;;;;;;4950451;29;20054;-95
2023/07/19 10:10:36;;;;;;;2.15;1.70;;;;;;;;;;4971703;29;20046;-94
2023/07/19 10:13:06;;;;;;;3.25;1.70;;;;;;;;;;4966887;28;20050;-95
2023/07/19 10:15:33;;;;;;;2.38;1.90;;;;;;;;;;4958666;28;20062;-94
2023/07/19 10:18:01;;;;;;;3.85;1.90;;;;;;;;;;4935015;29;20051;-95
2023/07/19 10:20:33;;;;;;;3.15;1.98;;;;;;;;;;4955571;28;20043;-94
2023/07/19 10:23:03;;;;;;;2.67;2.00;;;;;;;;;;4937568;29;20052;-95
2023/07/19 10:25:33;;;;;;;2.42;1.60;;;;;;;;;;4925507;29;20551;-94
2023/07/19 10:28:07;;;;;;;1.70;1.38;;;;;;;;;;4951522;29;20051;-95
2023/07/19 10:30:48;;;;;;;;;;;;;;;;;;4937247;29;20043;-95
2023/07/19 10:33:16;;;;;;;2.50;1.73;;;;;;;;;;4948949;29;19934;-95
2023/07/19 10:35:44;;;;;;;3.05;2.50;;;;;;;;;;4967312;28;20054;-94
2023/07/19 10:38:15;;;;;;;2.53;2.20;;;;;;;;;;4964832;29;20051;-95
2023/07/19 10:40:48;;;;;;;5.37;2.80;;;;;;;;;;4943112;29;20047;-93
2023/07/19 10:43:17;;;;;;;6.65;1.70;;;;;;;;;;4950975;28;20063;-94
2023/07/19 10:45:47;;;;;;;3.03;2.00;;;;;;;;;;4928076;29;20047;-93
2023/07/19 10:48:18;;;;;;;4.45;1.80;;;;;;;;;;4949622;29;20035;-94
2023/07/19 10:50:48;;;;;;;6.20;1.98;;;;;;;;;;4966596;28;20051;-94
2023/07/19 10:53:16;;;;;;;3.05;2.30;;;;;;;;;;4968627;29;20420;-95
2023/07/19 10:55:45;;;;;;;6.75;2.83;;;;;;;;;;4957634;29;20063;-94
2023/07/19 10:58:13;;;;;;;4.50;2.30;;;;;;;;;;4957565;28;20051;-95
2023/07/19 11:00:43;;;;;;;2.63;1.88;;;;;;;;;;4929758;28;20047;-95
2023/07/19 11:03:14;;;;;;;6.50;2.42;;;;;;;;;;4961621;28;20047;-93
2023/07/19 11:05:46;;;;;;;3.15;2.00;;;;;;;;;;4949791;28;20656;-93
2023/07/19 11:08:21;;;;;;;3.67;1.70;;;;;;;;;;4896424;29;20049;-94
2023/07/19 11:10:49;;;;;;;2.50;1.92;;;;;;;;;;4750510;29;20066;-93
2023/07/19 11:13:23;;;;;;;2.70;1.70;;;;;;;;;;4832796;29;20050;-95
2023/07/19 11:15:54;;;;;;;4.82;1.42;;;;;;;;;;4834335;29;20059;-94
2023/07/19 11:18:26;;;;;;;3.00;1.60;;;;;;;;;;4841697;29;20042;-94
2023/07/19 11:20:54;;;;;;;4.72;1.90;;;;;;;;;;4831288;29;20050;-95
2023/07/19 11:23:25;;;;;;;6.57;1.77;;;;;;;;;;4832791;29;20054;-93
2023/07/19 11:26:02;;;;;;;4.38;2.03;;;;;;;;;;4828155;29;20047;-94
2023/07/19 11:28:37;;;;;;;2.85;1.63;;;;;;;;;;4837039;29;20054;-94
2023/07/19 11:31:11;;;;;;;6.20;1.85;;;;;;;;;;4838270;29;20065;-94
2023/07/19 11:33:41;;;;;;;2.88;1.65;;;;;;;;;;4837462;29;20054;-93
2023/07/19 11:36:10;;;;;;;3.17;2.35;;;;;;;;;;4830675;29;20058;-94
2023/07/19 11:38:40;;;;;;;7.75;2.03;;;;;;;;;;4824010;29;20050;-93
2023/07/19 11:41:17;;;;;;;3.75;1.67;;;;;;;;;;4821390;29;20065;-95
2023/07/19 11:43:45;;;;;;;1.95;1.50;;;;;;;;;;4849104;29;20078;-94
2023/07/19 11:46:14;;;;;;;3.80;1.75;;;;;;;;;;4823758;29;20062;-94
2023/07/19 11:48:41;;;;;;;3.65;2.28;;;;;;;;;;4833182;29;20047;-94
2023/07/19 11:51:11;;;;;;;2.42;1.80;;;;;;;;;;4834311;29;20061;-95
2023/07/19 11:53:39;;;;;;;4.18;1.65;;;;;;;;;;4840207;29;20076;-95
2023/07/19 11:56:06;;;;;;;2.50;1.70;;;;;;;;;;4832023;29;20051;-96
2023/07/19 11:58:34;;;;;;;5.88;2.17;;;;;;;;;;4826789;29;20050;-94
2023/07/19 12:01:02;;;;;;;4.57;2.22;;;;;;;;;;4833555;29;20050;-95
2023/07/19 12:03:34;;;;;;;3.67;2.17;;;;;;;;;;4834242;29;20047;-93
2023/07/19 12:06:01;;;;;;;7.88;2.05;;;;;;;;;;4836057;29;20066;-94
2023/07/19 12:08:29;;;;;;;10.70;3.17;;;;;;;;;;4831301;29;20701;-93
2023/07/19 12:10:57;;;;;;;9.02;4.03;;;;;;;;;;4827533;29;20046;-92
2023/07/19 12:13:25;;;;;;;6.07;2.45;;;;;;;;;;4826163;29;20068;-92
2023/07/19 12:15:52;;;;;;;11.98;2.95;;;;;;;;;;4846383;29;20069;-93
2023/07/19 12:18:20;;;;;;;5.60;3.47;;;;;;;;;;4845049;29;20045;-92
2023/07/19 12:20:49;;;;;;;10.80;3.65;;;;;;;;;;4847050;29;20062;-94
2023/07/19 12:23:16;;;;;;;7.93;2.88;;;;;;;;;;4851692;29;20621;-92
2023/07/19 12:25:44;;;;;;;5.75;2.75;;;;;;;;;;4838608;29;20053;-93
2023/07/19 12:28:12;;;;;;;4.50;2.50;;;;;;;;;;4851177;29;20060;-93
2023/07/19 12:30:39;;;;;;;5.85;2.78;;;;;;;;;;4856389;29;20033;-93
2023/07/19 12:33:08;;;;;;;13.35;3.30;;;;;;;;;;4839874;29;20073;-93
2023/07/19 12:35:38;;;;;;;10.27;3.20;;;;;;;;;;4847382;29;20053;-93
2023/07/19 12:38:07;;;;;;;6.40;3.38;;;;;;;;;;4855824;29;20060;-92
2023/07/19 12:40:39;;;;;;;7.50;2.53;;;;;;;;;;4833818;29;20058;-93
2023/07/19 12:43:06;;;;;;;5.55;2.53;;;;;;;;;;4869024;29;20040;-94
2023/07/19 12:45:36;;;;;;;5.00;2.90;;;;;;;;;;4834876;29;20057;-93
2023/07/19 12:48:04;;;;;;;4.78;3.10;;;;;;;;;;4842280;29;20049;-92
2023/07/19 12:50:37;;;;;;;6.93;3.10;;;;;;;;;;4831720;29;20062;-94
2023/07/19 12:53:05;;;;;;;5.88;4.45;;;;;;;;;;4841448;29;20057;-93
2023/07/19 12:55:33;;;;;;;7.25;4.43;;;;;;;;;;4850456;29;20061;-93
2023/07/19 12:58:03;;;;;;;4.93;3.65;;;;;;;;;;4844216;29;20538;-93
2023/07/19 13:00:34;;;;;;;3.88;3.10;;;;;;;;;;4858285;29;20057;-94
2023/07/19 13:03:02;;;;;;;11.80;3.58;;;;;;;;;;4845540;29;20058;-94
2023/07/19 13:05:30;;;;;;;6.40;2.85;;;;;;;;;;4846847;29;20057;-94
2023/07/19 13:08:00;;;;;;;5.47;3.05;;;;;;;;;;4848519;29;20057;-93
2023/07/19 13:10:31;;;;;;;7.55;4.22;;;;;;;;;;4856380;29;20061;-94
2023/07/19 13:13:02;;;;;;;7.10;3.38;;;;;;;;;;4890025;29;20037;-93
2023/07/19 13:15:30;;;;;;;11.77;4.75;;;;;;;;;;4884995;29;20029;-94
2023/07/19 13:17:57;;;;;;;5.53;3.50;;;;;;;;;;4849957;29;20053;-95
2023/07/19 13:20:25;;;;;;;4.97;3.45;;;;;;;;;;4871531;29;20052;-94
2023/07/19 13:22:52;;;;;;;4.63;2.70;;;;;;;;;;4878465;29;20048;-93
2023/07/19 13:25:22;;;;;;;5.55;3.28;;;;;;;;;;4890769;29;20059;-94
2023/07/19 13:27:50;;;;;;;8.18;3.08;;;;;;;;;;4878220;29;20041;-94
2023/07/19 13:30:27;;;;;;;8.85;4.15;;;;;;;;;;4874782;29;20043;-95
2023/07/19 13:32:56;;;;;;;3.35;3.05;;;;;;;;;;4856540;29;20056;-93
2023/07/19 13:35:24;;;;;;;4.30;2.83;;;;;;;;;;4880146;29;20054;-93
2023/07/19 13:37:51;;;;;;;5.47;3.13;;;;;;;;;;4876189;29;20527;-94
2023/07/19 13:40:19;;;;;;;4.57;3.20;;;;;;;;;;4873622;29;20063;-95
2023/07/19 13:42:46;;;;;;;4.05;2.78;;;;;;;;;;4874121;29;20053;-95
2023/07/19 13:45:14;;;;;;;4.47;2.85;;;;;;;;;;4874701;29;20049;-94
2023/07/19 13:47:45;;;;;;;3.85;2.78;;;;;;;;;;4876188;29;20053;-93
2023/07/19 13:50:12;;;;;;;4.82;2.45;;;;;;;;;;4892461;29;20063;-92
2023/07/19 13:52:40;;;;;;;7.18;3.30;;;;;;;;;;4875183;29;20430;-93
2023/07/19 13:55:08;;;;;;;5.53;3.22;;;;;;;;;;4890214;29;20048;-94
2023/07/19 13:57:36;;;;;;;4.10;2.30;;;;;;;;;;4893431;29;20529;-94
2023/07/19 14:00:09;;;;;;;7.80;3.00;;;;;;;;;;4863519;29;20052;-93
2023/07/19 14:02:38;;;;;;;6.43;2.80;;;;;;;;;;4852703;29;20053;-93
2023/07/19 14:05:09;;;;;;;4.50;2.70;;;;;;;;;;4886505;29;20053;-93
2023/07/19 14:07:40;;;;;;;2.95;2.50;;;;;;;;;;4871960;29;20052;-94
2023/07/19 14:10:09;;;;;;;5.22;2.85;;;;;;;;;;4871980;29;20056;-94
2023/07/19 14:12:37;;;;;;;5.35;2.65;;;;;;;;;;4912009;29;20054;-93
2023/07/19 14:15:06;;;;;;;3.70;3.00;;;;;;;;;;4956106;28;20055;-92
2023/07/19 14:17:35;;;;;;;6.00;3.05;;;;;;;;;;4957188;28;20050;-93
2023/07/19 14:20:04;;;;;;;8.55;2.83;;;;;;;;;;4919571;29;20429;-93
2023/07/19 14:22:33;;;;;;;5.75;2.63;;;;;;;;;;4934752;29;20044;-93
2023/07/19 14:25:00;;;;;;;3.35;2.38;;;;;;;;;;4946252;29;20059;-94
2023/07/19 14:27:27;;;;;;;6.65;3.17;;;;;;;;;;4962005;28;20062;-92
2023/07/19 14:29:57;;;;;;;11.57;3.20;;;;;;;;;;4945440;29;20051;-93
2023/07/19 14:32:24;;;;;;;8.23;3.58;;;;;;;;;;4934521;28;20043;-92
2023/07/19 14:34:52;;;;;;;4.20;2.70;;;;;;;;;;4946920;29;20067;-93
2023/07/19 14:37:20;;;;;;;3.40;2.92;;;;;;;;;;4961274;28;20606;-94
2023/07/19 14:39:51;;;;;;;2.75;2.47;;;;;;;;;;4929303;28;20047;-93
2023/07/19 14:42:18;;;;;;;4.20;3.13;;;;;;;;;;4926222;29;20059;-94
2023/07/19 14:44:46;;;;;;;2.95;2.65;;;;;;;;;;4951003;29;20054;-93
2023/07/19 14:47:14;;;;;;;3.47;2.85;;;;;;;;;;4923749;29;20043;-95
2023/07/19 14:49:42;;;;;;;5.75;2.95;;;;;;;;;;4946315;29;20058;-93
2023/07/19 14:52:09;;;;;;;6.40;2.88;;;;;;;;;;4953412;28;20054;-93
2023/07/19 14:54:37;;;;;;;6.00;3.13;;;;;;;;;;4944048;29;20059;-92
2023/07/19 14:57:06;;;;;;;4.85;3.08;;;;;;;;;;4962142;29;20764;-92
2023/07/19 14:59:36;;;;;;;4.95;2.40;;;;;;;;;;4965871;28;20039;-92
2023/07/19 15:02:05;;;;;;;5.40;3.35;;;;;;;;;;4939892;29;20048;-92
2023/07/19 15:04:32;;;;;;;3.75;2.80;;;;;;;;;;4938541;29;20059;-92
2023/07/19 15:07:00;;;;;;;3.42;3.00;;;;;;;;;;4959224;29;20055;-93
2023/07/19 15:09:27;;;;;;;8.52;2.80;;;;;;;;;;4918709;28;20132;-92
2023/07/19 15:11:55;;;;;;;5.47;3.38;;;;;;;;;;4932134;29;20525;-93
2023/07/19 15:14:24;;;;;;;5.38;2.67;;;;;;;;;;4939358;29;20062;-93
2023/07/19 15:16:51;;;;;;;4.40;2.45;;;;;;;;;;4941733;29;20047;-93
2023/07/19 15:19:18;;;;;;;3.75;2.47;;;;;;;;;;4947167;29;20070;-94
2023/07/19 15:21:46;;;;;;;3.22;2.92;;;;;;;;;;4927533;29;20055;-93
2023/07/19 15:24:18;;;;;;;3.13;2.22;;;;;;;;;;4930246;29;20144;-93
2023/07/19 15:26:46;;;;;;;5.70;2.60;;;;;;;;;;4938991;29;20625;-93
2023/07/19 15:29:17;;;;;;;11.05;1.98;;;;;;;;;;4942539;29;20051;-93
2023/07/19 15:31:46;;;;;;;2.40;1.92;;;;;;;;;;4938009;29;20058;-93
2023/07/19 15:34:14;;;;;;;3.20;2.67;;;;;;;;;;4947059;29;20517;-94
2023/07/19 15:36:43;;;;;;;4.72;1.67;;;;;;;;;;4962719;29;20058;-93
2023/07/19 15:39:11;;;;;;;7.38;2.25;;;;;;;;;;4942557;28;20047;-93
2023/07/19 15:41:38;;;;;;;8.40;2.00;;;;;;;;;;4957440;28;20057;-94
2023/07/19 15:44:06;;;;;;;3.67;1.80;;;;;;;;;;4956897;29;20055;-92
2023/07/19 15:46:34;;;;;;;3.60;2.17;;;;;;;;;;4944618;28;20054;-91
2023/07/19 15:49:05;;;;;;;3.70;1.90;;;;;;;;;;4940280;29;20067;-93
2023/07/19 15:51:32;;;;;;;4.57;1.67;;;;;;;;;;4942042;29;20051;-92
2023/07/19 15:54:00;;;;;;;2.17;1.38;;;;;;;;;;4943157;29;20058;-92
2023/07/19 15:56:27;;;;;;;5.10;1.67;;;;;;;;;;4951500;28;20050;-94
2023/07/19 15:58:57;;;;;;;3.67;1.25;;;;;;;;;;4957778;29;20047;-93
2023/07/19 16:01:24;;;;;;;3.78;2.00;;;;;;;;;;4922371;28;20062;-93
2023/07/19 16:03:54;;;;;;;1.77;1.30;;;;;;;;;;4938611;29;20058;-93
2023/07/19 16:06:23;;;;;;;4.88;1.50;;;;;;;;;;4953459;29;20060;-94